createdAt,value
2022-10-30T00:07:17.833Z,11.10
2022-10-30T00:17:20.296Z,11.07
2022-10-30T00:27:22.799Z,10.99
2022-10-30T00:37:25.421Z,10.93
2022-10-30T00:47:38.374Z,10.87
2022-10-30T00:57:43.113Z,10.84
2022-10-30T01:07:45.415Z,10.90
2022-10-30T01:18:03.534Z,11.00
2022-10-30T01:28:27.324Z,11.00
2022-10-30T01:38:36.484Z,11.03
2022-10-30T01:48:59.439Z,10.97
2022-10-30T01:59:13.003Z,10.89
2022-10-30T02:09:16.907Z,10.82
2022-10-30T02:19:19.454Z,10.78
2022-10-30T02:29:22.181Z,10.72
2022-10-30T02:39:24.503Z,10.63
2022-10-30T02:49:26.804Z,10.47
2022-10-30T02:59:30.384Z,10.39
2022-10-30T03:09:32.807Z,10.25
2022-10-30T03:19:35.965Z,10.18
2022-10-30T03:29:38.278Z,10.10
2022-10-30T03:39:40.522Z,10.04
2022-10-30T03:49:42.877Z,9.93
2022-10-30T03:59:45.338Z,9.84
2022-10-30T04:09:47.693Z,9.81
2022-10-30T04:19:49.849Z,9.74
2022-10-30T04:29:53.007Z,9.71
2022-10-30T04:39:55.203Z,9.63
2022-10-30T04:49:57.516Z,9.59
2022-10-30T04:59:59.742Z,9.58
2022-10-30T05:10:01.970Z,9.54
2022-10-30T05:20:05.350Z,9.53
2022-10-30T05:30:08.337Z,9.42
2022-10-30T05:40:11.222Z,9.41
2022-10-30T05:50:13.451Z,9.39
2022-10-30T06:00:16.490Z,9.41
2022-10-30T06:10:18.795Z,9.31
2022-10-30T06:20:23.880Z,9.24
2022-10-30T06:30:27.501Z,9.29
2022-10-30T06:40:30.368Z,9.32
2022-10-30T06:50:32.828Z,9.39
2022-10-30T07:00:35.390Z,9.48
2022-10-30T07:10:37.958Z,9.68
2022-10-30T07:20:40.460Z,9.92
2022-10-30T07:30:42.862Z,10.23
2022-10-30T07:40:45.344Z,10.53
2022-10-30T07:50:47.691Z,10.82
2022-10-30T08:00:50.389Z,11.10
2022-10-30T08:10:53.232Z,11.46
2022-10-30T08:20:55.754Z,11.99
2022-10-30T08:30:59.711Z,12.44
2022-10-30T08:41:02.851Z,12.98
2022-10-30T08:51:07.394Z,13.43
2022-10-30T09:01:10.470Z,13.68
2022-10-30T09:11:13.119Z,13.95
2022-10-30T09:21:15.850Z,14.33
2022-10-30T09:31:18.562Z,14.58
2022-10-30T09:41:39.163Z,14.77
2022-10-30T09:52:12.430Z,14.99
2022-10-30T10:02:33.617Z,15.31
2022-10-30T10:12:44.308Z,15.71
2022-10-30T10:22:51.418Z,16.12
2022-10-30T10:33:01.731Z,16.56
2022-10-30T10:43:12.732Z,16.89
2022-10-30T10:53:40.444Z,17.20
2022-10-30T11:04:04.645Z,17.57
2022-10-30T11:14:19.566Z,17.98
2022-10-30T11:24:31.285Z,18.32
2022-10-30T11:34:38.422Z,18.62
2022-10-30T11:44:51.970Z,18.80
2022-10-30T11:55:02.195Z,18.86
2022-10-30T12:05:24.968Z,18.95
2022-10-30T12:15:28.634Z,18.98
2022-10-30T12:25:32.796Z,18.99
2022-10-30T12:35:45.519Z,19.21
2022-10-30T12:45:51.642Z,19.43
2022-10-30T12:56:05.861Z,19.51
2022-10-30T13:06:17.895Z,19.64
2022-10-30T13:16:31.086Z,19.89
2022-10-30T13:26:45.116Z,19.88
2022-10-30T13:37:01.437Z,19.72
2022-10-30T13:47:19.023Z,19.57
2022-10-30T13:57:40.139Z,19.39
2022-10-30T14:08:06.039Z,19.26
2022-10-30T14:18:14.788Z,19.24
2022-10-30T14:28:23.386Z,19.06
2022-10-30T14:38:27.882Z,18.85
2022-10-30T14:49:12.025Z,18.68
2022-10-30T14:59:14.528Z,18.50
2022-10-30T15:09:32.373Z,18.37
2022-10-30T15:19:36.040Z,18.15
2022-10-30T15:29:40.196Z,17.90
2022-10-30T15:39:42.817Z,17.58
2022-10-30T15:49:57.556Z,17.26
2022-10-30T16:00:06.415Z,16.91
2022-10-30T16:10:15.439Z,16.43
2022-10-30T16:20:18.139Z,15.95
2022-10-30T16:30:20.777Z,15.49
2022-10-30T16:40:29.353Z,15.10
2022-10-30T16:50:36.712Z,14.72
2022-10-30T17:00:42.305Z,14.34
2022-10-30T17:11:01.164Z,13.99
2022-10-30T17:21:16.444Z,13.76
2022-10-30T17:31:19.139Z,13.51
2022-10-30T17:41:22.037Z,13.32
2022-10-30T17:51:24.590Z,13.11
2022-10-30T18:01:27.718Z,12.92
2022-10-30T18:11:30.398Z,12.76
2022-10-30T18:21:33.196Z,12.57
2022-10-30T18:31:35.964Z,12.41
2022-10-30T18:41:42.529Z,12.24
2022-10-30T18:51:45.120Z,12.10
2022-10-30T19:01:47.847Z,12.00
2022-10-30T19:11:50.452Z,11.85
2022-10-30T19:21:53.296Z,11.76
2022-10-30T19:31:55.893Z,11.62
2022-10-30T19:41:58.373Z,11.49
2022-10-30T19:52:01.053Z,11.37
2022-10-30T20:02:03.584Z,11.29
2022-10-30T20:12:07.398Z,11.15
2022-10-30T20:22:13.952Z,11.04
2022-10-30T20:32:16.748Z,10.90
2022-10-30T20:42:22.807Z,10.78
2022-10-30T20:52:25.358Z,10.67
2022-10-30T21:02:28.789Z,10.58
2022-10-30T21:12:31.171Z,10.47
2022-10-30T21:22:33.630Z,10.41
2022-10-30T21:32:36.068Z,10.36
2022-10-30T21:42:38.438Z,10.33
2022-10-30T21:52:41.305Z,10.31
2022-10-30T22:02:43.709Z,10.28
2022-10-30T22:12:46.266Z,10.22
2022-10-30T22:22:49.173Z,10.22
2022-10-30T22:32:52.009Z,10.11
2022-10-30T22:42:54.394Z,10.11
2022-10-30T22:52:59.614Z,10.09
2022-10-30T23:03:03.691Z,10.07
2022-10-30T23:13:07.413Z,9.95
2022-10-30T23:23:10.333Z,9.90
2022-10-30T23:33:13.741Z,9.85
2022-10-30T23:43:16.852Z,9.77
2022-10-30T23:53:19.726Z,9.73
